sensor_id;sensor_type;location;lat;lon;timestamp;P1;durP1;ratioP1;P2;durP2;ratioP2
5961;SDS011;3007;50.770;0.250;2023-02-28T00:00:13;4.17;;;1.20;;
5961;SDS011;3007;50.770;0.250;2023-02-28T00:02:41;6.87;;;1.57;;
5961;SDS011;3007;50.770;0.250;2023-02-28T00:05:10;2.77;;;1.50;;
5961;SDS011;3007;50.770;0.250;2023-02-28T00:07:38;2.93;;;1.50;;
5961;SDS011;3007;50.770;0.250;2023-02-28T00:10:07;4.53;;;1.57;;
5961;SDS011;3007;50.770;0.250;2023-02-28T00:12:38;4.53;;;1.63;;
5961;SDS011;3007;50.770;0.250;2023-02-28T00:15:06;5.40;;;2.10;;
5961;SDS011;3007;50.770;0.250;2023-02-28T00:17:34;2.50;;;1.50;;
5961;SDS011;3007;50.770;0.250;2023-02-28T00:20:02;4.77;;;1.80;;
5961;SDS011;3007;50.770;0.250;2023-02-28T00:22:33;7.50;;;1.33;;
5961;SDS011;3007;50.770;0.250;2023-02-28T00:25:00;9.60;;;1.60;;
5961;SDS011;3007;50.770;0.250;2023-02-28T00:27:27;2.77;;;1.17;;
5961;SDS011;3007;50.770;0.250;2023-02-28T00:29:55;3.80;;;1.63;;
5961;SDS011;3007;50.770;0.250;2023-02-28T00:32:22;6.20;;;1.30;;
5961;SDS011;3007;50.770;0.250;2023-02-28T00:34:49;6.30;;;1.73;;
5961;SDS011;3007;50.770;0.250;2023-02-28T00:37:16;3.87;;;1.47;;
5961;SDS011;3007;50.770;0.250;2023-02-28T00:39:43;8.23;;;1.97;;
5961;SDS011;3007;50.770;0.250;2023-02-28T00:42:10;5.27;;;2.07;;
5961;SDS011;3007;50.770;0.250;2023-02-28T00:44:37;9.23;;;2.03;;
5961;SDS011;3007;50.770;0.250;2023-02-28T00:47:06;6.67;;;1.63;;
5961;SDS011;3007;50.770;0.250;2023-02-28T00:49:33;3.43;;;1.33;;
5961;SDS011;3007;50.770;0.250;2023-02-28T00:52:00;6.73;;;1.63;;
5961;SDS011;3007;50.770;0.250;2023-02-28T00:54:27;5.50;;;1.70;;
5961;SDS011;3007;50.770;0.250;2023-02-28T00:56:54;7.30;;;1.50;;
5961;SDS011;3007;50.770;0.250;2023-02-28T00:59:20;1.93;;;1.20;;
5961;SDS011;3007;50.770;0.250;2023-02-28T01:01:47;4.50;;;1.40;;
5961;SDS011;3007;50.770;0.250;2023-02-28T01:04:18;2.40;;;1.00;;
5961;SDS011;3007;50.770;0.250;2023-02-28T01:06:44;5.03;;;1.30;;
5961;SDS011;3007;50.770;0.250;2023-02-28T01:09:11;4.87;;;1.63;;
5961;SDS011;3007;50.770;0.250;2023-02-28T01:11:38;3.63;;;1.47;;
5961;SDS011;3007;50.770;0.250;2023-02-28T01:14:09;6.53;;;1.23;;
5961;SDS011;3007;50.770;0.250;2023-02-28T01:16:38;5.67;;;1.20;;
5961;SDS011;3007;50.770;0.250;2023-02-28T01:19:05;3.03;;;1.17;;
5961;SDS011;3007;50.770;0.250;2023-02-28T01:21:33;5.97;;;1.03;;
5961;SDS011;3007;50.770;0.250;2023-02-28T01:24:04;7.43;;;1.20;;
5961;SDS011;3007;50.770;0.250;2023-02-28T01:26:32;4.50;;;1.27;;
5961;SDS011;3007;50.770;0.250;2023-02-28T01:28:59;9.93;;;1.30;;
5961;SDS011;3007;50.770;0.250;2023-02-28T01:31:26;3.50;;;1.40;;
5961;SDS011;3007;50.770;0.250;2023-02-28T01:33:53;5.83;;;1.10;;
5961;SDS011;3007;50.770;0.250;2023-02-28T01:36:21;3.93;;;0.93;;
5961;SDS011;3007;50.770;0.250;2023-02-28T01:38:50;2.63;;;1.07;;
5961;SDS011;3007;50.770;0.250;2023-02-28T01:41:18;4.10;;;0.93;;
5961;SDS011;3007;50.770;0.250;2023-02-28T01:43:58;2.67;;;1.00;;
5961;SDS011;3007;50.770;0.250;2023-02-28T01:46:29;4.97;;;1.50;;
5961;SDS011;3007;50.770;0.250;2023-02-28T01:48:59;3.33;;;1.27;;
5961;SDS011;3007;50.770;0.250;2023-02-28T01:51:34;2.23;;;1.10;;
5961;SDS011;3007;50.770;0.250;2023-02-28T01:54:07;2.93;;;1.07;;
5961;SDS011;3007;50.770;0.250;2023-02-28T01:56:38;5.43;;;2.03;;
5961;SDS011;3007;50.770;0.250;2023-02-28T01:59:08;5.13;;;1.47;;
5961;SDS011;3007;50.770;0.250;2023-02-28T02:01:36;8.23;;;1.80;;
5961;SDS011;3007;50.770;0.250;2023-02-28T02:04:03;9.17;;;1.57;;
5961;SDS011;3007;50.770;0.250;2023-02-28T02:06:31;4.80;;;1.23;;
5961;SDS011;3007;50.770;0.250;2023-02-28T02:09:02;6.70;;;1.30;;
5961;SDS011;3007;50.770;0.250;2023-02-28T02:11:31;3.90;;;1.20;;
5961;SDS011;3007;50.770;0.250;2023-02-28T02:14:02;2.80;;;1.13;;
5961;SDS011;3007;50.770;0.250;2023-02-28T02:16:42;6.83;;;1.50;;
5961;SDS011;3007;50.770;0.250;2023-02-28T02:19:33;3.70;;;1.10;;
5961;SDS011;3007;50.770;0.250;2023-02-28T02:22:18;4.33;;;1.03;;
5961;SDS011;3007;50.770;0.250;2023-02-28T02:25:11;3.40;;;1.20;;
5961;SDS011;3007;50.770;0.250;2023-02-28T02:28:09;6.13;;;1.20;;
5961;SDS011;3007;50.770;0.250;2023-02-28T02:37:21;7.27;;;1.73;;
5961;SDS011;3007;50.770;0.250;2023-02-28T02:39:58;3.47;;;1.43;;
5961;SDS011;3007;50.770;0.250;2023-02-28T02:42:31;4.03;;;1.60;;
5961;SDS011;3007;50.770;0.250;2023-02-28T02:45:06;5.50;;;1.60;;
5961;SDS011;3007;50.770;0.250;2023-02-28T02:47:35;8.53;;;1.60;;
5961;SDS011;3007;50.770;0.250;2023-02-28T02:50:07;10.60;;;1.73;;
5961;SDS011;3007;50.770;0.250;2023-02-28T02:52:39;4.60;;;1.43;;
5961;SDS011;3007;50.770;0.250;2023-02-28T02:55:15;4.33;;;1.30;;
5961;SDS011;3007;50.770;0.250;2023-02-28T02:57:44;8.27;;;1.70;;
5961;SDS011;3007;50.770;0.250;2023-02-28T03:00:15;4.50;;;1.40;;
5961;SDS011;3007;50.770;0.250;2023-02-28T03:02:46;7.53;;;1.90;;
5961;SDS011;3007;50.770;0.250;2023-02-28T03:05:17;6.17;;;2.40;;
5961;SDS011;3007;50.770;0.250;2023-02-28T03:07:47;8.33;;;1.93;;
5961;SDS011;3007;50.770;0.250;2023-02-28T03:10:35;4.13;;;1.47;;
5961;SDS011;3007;50.770;0.250;2023-02-28T03:13:12;6.67;;;1.80;;
5961;SDS011;3007;50.770;0.250;2023-02-28T03:15:53;5.90;;;2.10;;
5961;SDS011;3007;50.770;0.250;2023-02-28T03:18:30;6.80;;;1.83;;
5961;SDS011;3007;50.770;0.250;2023-02-28T03:21:06;8.20;;;1.80;;
5961;SDS011;3007;50.770;0.250;2023-02-28T03:23:44;5.33;;;1.60;;
5961;SDS011;3007;50.770;0.250;2023-02-28T03:26:18;4.03;;;1.70;;
5961;SDS011;3007;50.770;0.250;2023-02-28T03:28:50;5.97;;;2.10;;
5961;SDS011;3007;50.770;0.250;2023-02-28T03:31:22;7.27;;;1.80;;
5961;SDS011;3007;50.770;0.250;2023-02-28T03:33:55;3.60;;;1.60;;
5961;SDS011;3007;50.770;0.250;2023-02-28T03:36:29;7.20;;;1.97;;
5961;SDS011;3007;50.770;0.250;2023-02-28T03:39:02;5.13;;;2.27;;
5961;SDS011;3007;50.770;0.250;2023-02-28T03:41:36;5.27;;;1.73;;
5961;SDS011;3007;50.770;0.250;2023-02-28T03:44:09;5.60;;;1.90;;
5961;SDS011;3007;50.770;0.250;2023-02-28T03:46:44;7.80;;;1.90;;
5961;SDS011;3007;50.770;0.250;2023-02-28T03:49:15;7.10;;;1.90;;
5961;SDS011;3007;50.770;0.250;2023-02-28T03:51:47;5.57;;;2.27;;
5961;SDS011;3007;50.770;0.250;2023-02-28T03:54:18;8.10;;;2.30;;
5961;SDS011;3007;50.770;0.250;2023-02-28T03:56:49;9.37;;;2.57;;
5961;SDS011;3007;50.770;0.250;2023-02-28T03:59:21;8.40;;;2.60;;
5961;SDS011;3007;50.770;0.250;2023-02-28T04:01:52;8.37;;;2.83;;
5961;SDS011;3007;50.770;0.250;2023-02-28T04:04:20;7.83;;;2.70;;
5961;SDS011;3007;50.770;0.250;2023-02-28T04:06:50;8.63;;;2.47;;
5961;SDS011;3007;50.770;0.250;2023-02-28T04:09:19;8.73;;;2.80;;
5961;SDS011;3007;50.770;0.250;2023-02-28T04:11:46;9.20;;;2.50;;
5961;SDS011;3007;50.770;0.250;2023-02-28T04:14:17;6.67;;;2.43;;
5961;SDS011;3007;50.770;0.250;2023-02-28T04:16:44;10.80;;;2.40;;
5961;SDS011;3007;50.770;0.250;2023-02-28T04:19:12;11.97;;;3.43;;
5961;SDS011;3007;50.770;0.250;2023-02-28T04:21:40;4.17;;;2.53;;
5961;SDS011;3007;50.770;0.250;2023-02-28T04:24:11;5.47;;;2.50;;
5961;SDS011;3007;50.770;0.250;2023-02-28T04:26:40;7.90;;;2.67;;
5961;SDS011;3007;50.770;0.250;2023-02-28T04:29:09;4.17;;;2.10;;
5961;SDS011;3007;50.770;0.250;2023-02-28T04:31:37;9.20;;;2.40;;
5961;SDS011;3007;50.770;0.250;2023-02-28T04:34:04;4.97;;;2.50;;
5961;SDS011;3007;50.770;0.250;2023-02-28T04:36:31;9.83;;;3.03;;
5961;SDS011;3007;50.770;0.250;2023-02-28T04:38:58;9.40;;;2.47;;
5961;SDS011;3007;50.770;0.250;2023-02-28T04:41:26;5.60;;;2.17;;
5961;SDS011;3007;50.770;0.250;2023-02-28T04:43:53;8.20;;;2.30;;
5961;SDS011;3007;50.770;0.250;2023-02-28T04:46:21;10.00;;;2.50;;
5961;SDS011;3007;50.770;0.250;2023-02-28T04:48:48;4.67;;;2.00;;
5961;SDS011;3007;50.770;0.250;2023-02-28T04:51:16;6.67;;;2.27;;
5961;SDS011;3007;50.770;0.250;2023-02-28T04:53:45;7.40;;;2.17;;
5961;SDS011;3007;50.770;0.250;2023-02-28T04:56:13;6.77;;;2.20;;
5961;SDS011;3007;50.770;0.250;2023-02-28T04:58:42;6.70;;;2.20;;
5961;SDS011;3007;50.770;0.250;2023-02-28T05:01:16;4.30;;;2.20;;
5961;SDS011;3007;50.770;0.250;2023-02-28T05:03:44;2.97;;;1.70;;
5961;SDS011;3007;50.770;0.250;2023-02-28T05:06:11;9.07;;;3.20;;
5961;SDS011;3007;50.770;0.250;2023-02-28T05:08:40;9.57;;;2.17;;
5961;SDS011;3007;50.770;0.250;2023-02-28T05:11:08;5.63;;;2.30;;
5961;SDS011;3007;50.770;0.250;2023-02-28T05:13:42;7.90;;;2.30;;
5961;SDS011;3007;50.770;0.250;2023-02-28T05:16:09;8.53;;;2.43;;
5961;SDS011;3007;50.770;0.250;2023-02-28T05:18:36;13.80;;;2.77;;
5961;SDS011;3007;50.770;0.250;2023-02-28T05:21:03;5.77;;;2.47;;
5961;SDS011;3007;50.770;0.250;2023-02-28T05:23:30;4.23;;;2.40;;
5961;SDS011;3007;50.770;0.250;2023-02-28T05:25:57;8.70;;;2.53;;
5961;SDS011;3007;50.770;0.250;2023-02-28T05:28:24;6.43;;;2.87;;
5961;SDS011;3007;50.770;0.250;2023-02-28T05:30:52;9.67;;;2.73;;
5961;SDS011;3007;50.770;0.250;2023-02-28T05:33:19;5.37;;;2.40;;
5961;SDS011;3007;50.770;0.250;2023-02-28T05:35:46;4.83;;;2.50;;
5961;SDS011;3007;50.770;0.250;2023-02-28T05:38:13;7.13;;;2.27;;
5961;SDS011;3007;50.770;0.250;2023-02-28T05:40:40;9.67;;;3.13;;
5961;SDS011;3007;50.770;0.250;2023-02-28T05:43:08;9.23;;;2.90;;
5961;SDS011;3007;50.770;0.250;2023-02-28T05:45:36;5.43;;;2.83;;
5961;SDS011;3007;50.770;0.250;2023-02-28T05:48:05;7.33;;;3.17;;
5961;SDS011;3007;50.770;0.250;2023-02-28T05:50:32;6.27;;;3.07;;
5961;SDS011;3007;50.770;0.250;2023-02-28T05:52:59;9.20;;;2.70;;
5961;SDS011;3007;50.770;0.250;2023-02-28T05:55:26;8.47;;;3.00;;
5961;SDS011;3007;50.770;0.250;2023-02-28T05:57:53;5.57;;;2.93;;
5961;SDS011;3007;50.770;0.250;2023-02-28T06:00:21;7.13;;;2.67;;
5961;SDS011;3007;50.770;0.250;2023-02-28T06:02:48;15.37;;;2.97;;
5961;SDS011;3007;50.770;0.250;2023-02-28T06:05:17;7.33;;;2.80;;
5961;SDS011;3007;50.770;0.250;2023-02-28T06:07:44;10.53;;;3.20;;
5961;SDS011;3007;50.770;0.250;2023-02-28T06:10:12;9.63;;;2.83;;
5961;SDS011;3007;50.770;0.250;2023-02-28T06:12:39;5.07;;;2.87;;
5961;SDS011;3007;50.770;0.250;2023-02-28T06:15:09;6.13;;;2.97;;
5961;SDS011;3007;50.770;0.250;2023-02-28T06:17:39;7.20;;;2.90;;
5961;SDS011;3007;50.770;0.250;2023-02-28T06:20:06;7.63;;;3.07;;
5961;SDS011;3007;50.770;0.250;2023-02-28T06:22:36;5.63;;;3.20;;
5961;SDS011;3007;50.770;0.250;2023-02-28T06:25:03;8.87;;;3.70;;
5961;SDS011;3007;50.770;0.250;2023-02-28T06:27:30;10.27;;;3.40;;
5961;SDS011;3007;50.770;0.250;2023-02-28T06:29:58;7.77;;;3.40;;
5961;SDS011;3007;50.770;0.250;2023-02-28T06:32:25;10.10;;;3.07;;
5961;SDS011;3007;50.770;0.250;2023-02-28T06:34:52;8.77;;;3.40;;
5961;SDS011;3007;50.770;0.250;2023-02-28T06:37:19;6.27;;;3.20;;
5961;SDS011;3007;50.770;0.250;2023-02-28T06:39:47;6.70;;;3.03;;
5961;SDS011;3007;50.770;0.250;2023-02-28T06:42:14;6.27;;;3.30;;
5961;SDS011;3007;50.770;0.250;2023-02-28T06:44:41;5.57;;;3.40;;
5961;SDS011;3007;50.770;0.250;2023-02-28T06:47:08;7.17;;;3.50;;
5961;SDS011;3007;50.770;0.250;2023-02-28T06:49:36;5.63;;;3.20;;
5961;SDS011;3007;50.770;0.250;2023-02-28T06:52:04;8.27;;;3.30;;
5961;SDS011;3007;50.770;0.250;2023-02-28T06:54:31;10.47;;;3.80;;
5961;SDS011;3007;50.770;0.250;2023-02-28T06:56:59;9.47;;;4.17;;
5961;SDS011;3007;50.770;0.250;2023-02-28T06:59:26;5.87;;;3.83;;
5961;SDS011;3007;50.770;0.250;2023-02-28T07:01:53;7.73;;;3.90;;
5961;SDS011;3007;50.770;0.250;2023-02-28T07:04:20;6.93;;;3.47;;
5961;SDS011;3007;50.770;0.250;2023-02-28T07:06:47;6.47;;;3.20;;
5961;SDS011;3007;50.770;0.250;2023-02-28T07:09:14;9.37;;;4.10;;
5961;SDS011;3007;50.770;0.250;2023-02-28T07:11:42;6.90;;;4.00;;
5961;SDS011;3007;50.770;0.250;2023-02-28T07:14:10;9.27;;;4.00;;
5961;SDS011;3007;50.770;0.250;2023-02-28T07:16:37;7.50;;;3.80;;
5961;SDS011;3007;50.770;0.250;2023-02-28T07:19:04;9.60;;;4.07;;
5961;SDS011;3007;50.770;0.250;2023-02-28T07:21:31;12.17;;;4.93;;
5961;SDS011;3007;50.770;0.250;2023-02-28T07:23:57;9.90;;;3.97;;
5961;SDS011;3007;50.770;0.250;2023-02-28T07:26:24;7.53;;;4.20;;
5961;SDS011;3007;50.770;0.250;2023-02-28T07:28:51;8.07;;;4.10;;
5961;SDS011;3007;50.770;0.250;2023-02-28T07:31:20;8.87;;;4.30;;
5961;SDS011;3007;50.770;0.250;2023-02-28T07:33:47;7.93;;;4.00;;
5961;SDS011;3007;50.770;0.250;2023-02-28T07:36:15;8.13;;;4.60;;
5961;SDS011;3007;50.770;0.250;2023-02-28T07:38:43;7.80;;;4.03;;
5961;SDS011;3007;50.770;0.250;2023-02-28T07:41:13;11.60;;;4.10;;
5961;SDS011;3007;50.770;0.250;2023-02-28T07:43:40;8.20;;;4.23;;
5961;SDS011;3007;50.770;0.250;2023-02-28T07:46:08;6.17;;;3.97;;
5961;SDS011;3007;50.770;0.250;2023-02-28T07:48:38;8.33;;;4.20;;
5961;SDS011;3007;50.770;0.250;2023-02-28T07:51:04;4.30;;;3.47;;
5961;SDS011;3007;50.770;0.250;2023-02-28T07:53:31;9.13;;;4.33;;
5961;SDS011;3007;50.770;0.250;2023-02-28T07:55:59;10.57;;;5.18;;
5961;SDS011;3007;50.770;0.250;2023-02-28T07:58:27;7.17;;;4.23;;
5961;SDS011;3007;50.770;0.250;2023-02-28T08:00:55;10.83;;;4.33;;
5961;SDS011;3007;50.770;0.250;2023-02-28T08:03:22;5.97;;;3.63;;
5961;SDS011;3007;50.770;0.250;2023-02-28T08:05:51;9.40;;;4.10;;
5961;SDS011;3007;50.770;0.250;2023-02-28T08:08:18;11.10;;;4.40;;
5961;SDS011;3007;50.770;0.250;2023-02-28T08:10:45;13.27;;;5.93;;
5961;SDS011;3007;50.770;0.250;2023-02-28T08:13:12;9.77;;;4.03;;
5961;SDS011;3007;50.770;0.250;2023-02-28T08:15:40;7.57;;;4.00;;
5961;SDS011;3007;50.770;0.250;2023-02-28T08:18:07;9.23;;;4.10;;
5961;SDS011;3007;50.770;0.250;2023-02-28T08:20:34;11.13;;;3.80;;
5961;SDS011;3007;50.770;0.250;2023-02-28T08:23:03;8.90;;;3.77;;
5961;SDS011;3007;50.770;0.250;2023-02-28T08:25:29;7.33;;;4.33;;
5961;SDS011;3007;50.770;0.250;2023-02-28T08:27:56;6.60;;;3.63;;
5961;SDS011;3007;50.770;0.250;2023-02-28T08:30:23;8.60;;;3.70;;
5961;SDS011;3007;50.770;0.250;2023-02-28T08:32:50;9.97;;;3.80;;
5961;SDS011;3007;50.770;0.250;2023-02-28T08:35:17;8.60;;;3.03;;
5961;SDS011;3007;50.770;0.250;2023-02-28T08:37:44;8.33;;;3.57;;
5961;SDS011;3007;50.770;0.250;2023-02-28T08:40:14;10.68;;;3.80;;
5961;SDS011;3007;50.770;0.250;2023-02-28T08:42:43;8.80;;;3.57;;
5961;SDS011;3007;50.770;0.250;2023-02-28T08:45:10;5.57;;;2.90;;
5961;SDS011;3007;50.770;0.250;2023-02-28T08:47:37;7.33;;;3.03;;
5961;SDS011;3007;50.770;0.250;2023-02-28T08:50:05;6.73;;;2.80;;
5961;SDS011;3007;50.770;0.250;2023-02-28T08:52:32;8.27;;;3.33;;
5961;SDS011;3007;50.770;0.250;2023-02-28T08:54:59;4.77;;;2.50;;
5961;SDS011;3007;50.770;0.250;2023-02-28T08:57:27;4.30;;;2.37;;
5961;SDS011;3007;50.770;0.250;2023-02-28T08:59:54;7.53;;;3.10;;
5961;SDS011;3007;50.770;0.250;2023-02-28T09:02:22;6.30;;;2.33;;
5961;SDS011;3007;50.770;0.250;2023-02-28T09:04:49;4.83;;;2.80;;
5961;SDS011;3007;50.770;0.250;2023-02-28T09:07:16;7.37;;;2.50;;
5961;SDS011;3007;50.770;0.250;2023-02-28T09:09:43;5.37;;;2.67;;
5961;SDS011;3007;50.770;0.250;2023-02-28T09:12:19;6.63;;;2.53;;
5961;SDS011;3007;50.770;0.250;2023-02-28T09:14:48;6.40;;;2.70;;
5961;SDS011;3007;50.770;0.250;2023-02-28T09:17:15;6.30;;;2.20;;
5961;SDS011;3007;50.770;0.250;2023-02-28T09:19:42;2.90;;;2.03;;
5961;SDS011;3007;50.770;0.250;2023-02-28T09:22:10;4.70;;;2.17;;
5961;SDS011;3007;50.770;0.250;2023-02-28T09:24:37;2.37;;;2.17;;
5961;SDS011;3007;50.770;0.250;2023-02-28T09:27:04;5.37;;;2.07;;
5961;SDS011;3007;50.770;0.250;2023-02-28T09:29:32;4.67;;;1.80;;
5961;SDS011;3007;50.770;0.250;2023-02-28T09:32:01;4.83;;;2.30;;
5961;SDS011;3007;50.770;0.250;2023-02-28T09:34:30;4.40;;;1.80;;
5961;SDS011;3007;50.770;0.250;2023-02-28T09:36:57;3.63;;;2.23;;
5961;SDS011;3007;50.770;0.250;2023-02-28T09:39:24;5.47;;;2.07;;
5961;SDS011;3007;50.770;0.250;2023-02-28T09:41:54;6.43;;;2.40;;
5961;SDS011;3007;50.770;0.250;2023-02-28T09:44:25;5.70;;;1.60;;
5961;SDS011;3007;50.770;0.250;2023-02-28T09:46:57;6.10;;;2.00;;
5961;SDS011;3007;50.770;0.250;2023-02-28T09:49:31;2.93;;;1.60;;
5961;SDS011;3007;50.770;0.250;2023-02-28T09:52:03;5.87;;;1.80;;
5961;SDS011;3007;50.770;0.250;2023-02-28T09:54:34;4.27;;;1.70;;
5961;SDS011;3007;50.770;0.250;2023-02-28T09:57:05;3.83;;;1.70;;
5961;SDS011;3007;50.770;0.250;2023-02-28T09:59:39;1.80;;;1.40;;
5961;SDS011;3007;50.770;0.250;2023-02-28T10:02:24;1.27;;;1.00;;
5961;SDS011;3007;50.770;0.250;2023-02-28T10:05:14;1.70;;;1.10;;
5961;SDS011;3007;50.770;0.250;2023-02-28T10:07:48;3.90;;;1.20;;
5961;SDS011;3007;50.770;0.250;2023-02-28T10:10:25;2.13;;;1.03;;
5961;SDS011;3007;50.770;0.250;2023-02-28T10:12:57;2.20;;;1.17;;
5961;SDS011;3007;50.770;0.250;2023-02-28T10:15:31;2.37;;;1.37;;
5961;SDS011;3007;50.770;0.250;2023-02-28T10:18:02;3.43;;;1.40;;
5961;SDS011;3007;50.770;0.250;2023-02-28T10:20:34;2.33;;;1.00;;
5961;SDS011;3007;50.770;0.250;2023-02-28T10:23:07;3.97;;;1.53;;
5961;SDS011;3007;50.770;0.250;2023-02-28T10:25:40;1.53;;;1.00;;
5961;SDS011;3007;50.770;0.250;2023-02-28T10:28:13;1.83;;;1.37;;
5961;SDS011;3007;50.770;0.250;2023-02-28T10:30:43;1.40;;;0.90;;
5961;SDS011;3007;50.770;0.250;2023-02-28T10:33:21;1.90;;;1.10;;
5961;SDS011;3007;50.770;0.250;2023-02-28T10:35:51;1.80;;;1.00;;
5961;SDS011;3007;50.770;0.250;2023-02-28T10:38:20;2.60;;;0.80;;
5961;SDS011;3007;50.770;0.250;2023-02-28T10:40:49;3.57;;;1.00;;
5961;SDS011;3007;50.770;0.250;2023-02-28T10:43:21;1.97;;;0.83;;
5961;SDS011;3007;50.770;0.250;2023-02-28T10:45:53;1.90;;;0.93;;
5961;SDS011;3007;50.770;0.250;2023-02-28T10:48:36;0.80;;;0.50;;
5961;SDS011;3007;50.770;0.250;2023-02-28T10:51:06;1.17;;;0.77;;
5961;SDS011;3007;50.770;0.250;2023-02-28T10:53:39;1.60;;;0.77;;
5961;SDS011;3007;50.770;0.250;2023-02-28T10:56:15;2.30;;;0.67;;
5961;SDS011;3007;50.770;0.250;2023-02-28T10:58:47;2.43;;;1.13;;
5961;SDS011;3007;50.770;0.250;2023-02-28T11:01:17;0.87;;;0.70;;
5961;SDS011;3007;50.770;0.250;2023-02-28T11:03:46;3.03;;;0.90;;
5961;SDS011;3007;50.770;0.250;2023-02-28T11:06:16;2.10;;;0.60;;
5961;SDS011;3007;50.770;0.250;2023-02-28T11:08:48;1.23;;;0.80;;
5961;SDS011;3007;50.770;0.250;2023-02-28T11:11:18;1.47;;;0.83;;
5961;SDS011;3007;50.770;0.250;2023-02-28T11:13:47;3.40;;;0.93;;
5961;SDS011;3007;50.770;0.250;2023-02-28T11:16:17;1.10;;;0.90;;
5961;SDS011;3007;50.770;0.250;2023-02-28T11:18:47;1.87;;;0.60;;
5961;SDS011;3007;50.770;0.250;2023-02-28T11:21:18;1.43;;;1.07;;
5961;SDS011;3007;50.770;0.250;2023-02-28T11:23:49;1.73;;;0.87;;
5961;SDS011;3007;50.770;0.250;2023-02-28T11:29:03;2.20;;;0.90;;
5961;SDS011;3007;50.770;0.250;2023-02-28T11:31:36;1.37;;;0.70;;
5961;SDS011;3007;50.770;0.250;2023-02-28T11:34:07;1.23;;;0.70;;
5961;SDS011;3007;50.770;0.250;2023-02-28T11:36:51;1.30;;;0.60;;
5961;SDS011;3007;50.770;0.250;2023-02-28T11:39:22;0.60;;;0.60;;
5961;SDS011;3007;50.770;0.250;2023-02-28T11:41:56;0.80;;;0.80;;
5961;SDS011;3007;50.770;0.250;2023-02-28T11:44:40;1.20;;;0.40;;
5961;SDS011;3007;50.770;0.250;2023-02-28T11:47:21;2.40;;;0.80;;
5961;SDS011;3007;50.770;0.250;2023-02-28T11:50:04;6.37;;;1.20;;
5961;SDS011;3007;50.770;0.250;2023-02-28T11:52:43;0.57;;;0.57;;
5961;SDS011;3007;50.770;0.250;2023-02-28T11:55:16;1.67;;;0.60;;
5961;SDS011;3007;50.770;0.250;2023-02-28T11:57:52;0.77;;;0.77;;
5961;SDS011;3007;50.770;0.250;2023-02-28T12:00:35;3.20;;;0.77;;
5961;SDS011;3007;50.770;0.250;2023-02-28T12:03:18;0.93;;;0.70;;
5961;SDS011;3007;50.770;0.250;2023-02-28T12:05:56;0.50;;;0.50;;
5961;SDS011;3007;50.770;0.250;2023-02-28T12:08:39;3.33;;;0.57;;
5961;SDS011;3007;50.770;0.250;2023-02-28T12:11:14;0.80;;;0.60;;
5961;SDS011;3007;50.770;0.250;2023-02-28T12:13:52;0.83;;;0.70;;
5961;SDS011;3007;50.770;0.250;2023-02-28T12:16:45;1.80;;;0.70;;
5961;SDS011;3007;50.770;0.250;2023-02-28T12:19:21;1.70;;;0.97;;
5961;SDS011;3007;50.770;0.250;2023-02-28T12:22:00;0.70;;;0.70;;
5961;SDS011;3007;50.770;0.250;2023-02-28T12:27:40;1.87;;;1.30;;
5961;SDS011;3007;50.770;0.250;2023-02-28T12:30:13;3.20;;;1.10;;
5961;SDS011;3007;50.770;0.250;2023-02-28T12:32:45;4.50;;;1.10;;
5961;SDS011;3007;50.770;0.250;2023-02-28T12:35:16;1.90;;;1.00;;
5961;SDS011;3007;50.770;0.250;2023-02-28T12:37:49;2.63;;;1.03;;
5961;SDS011;3007;50.770;0.250;2023-02-28T12:40:26;3.13;;;1.10;;
5961;SDS011;3007;50.770;0.250;2023-02-28T12:43:08;1.27;;;0.70;;
5961;SDS011;3007;50.770;0.250;2023-02-28T12:45:40;1.53;;;1.00;;
5961;SDS011;3007;50.770;0.250;2023-02-28T12:48:11;2.30;;;0.80;;
5961;SDS011;3007;50.770;0.250;2023-02-28T12:50:44;3.13;;;1.00;;
5961;SDS011;3007;50.770;0.250;2023-02-28T12:53:14;2.23;;;1.20;;
5961;SDS011;3007;50.770;0.250;2023-02-28T12:55:50;3.93;;;1.77;;
5961;SDS011;3007;50.770;0.250;2023-02-28T12:58:27;2.10;;;1.40;;
5961;SDS011;3007;50.770;0.250;2023-02-28T13:01:06;3.53;;;1.50;;
5961;SDS011;3007;50.770;0.250;2023-02-28T13:03:58;3.17;;;1.80;;
5961;SDS011;3007;50.770;0.250;2023-02-28T13:06:52;2.67;;;1.57;;
5961;SDS011;3007;50.770;0.250;2023-02-28T13:09:26;2.23;;;1.50;;
5961;SDS011;3007;50.770;0.250;2023-02-28T13:11:56;1.80;;;1.30;;
5961;SDS011;3007;50.770;0.250;2023-02-28T13:14:26;0.70;;;0.70;;
5961;SDS011;3007;50.770;0.250;2023-02-28T13:16:57;1.73;;;1.30;;
5961;SDS011;3007;50.770;0.250;2023-02-28T13:19:26;1.73;;;1.07;;
5961;SDS011;3007;50.770;0.250;2023-02-28T13:21:56;1.10;;;1.00;;
5961;SDS011;3007;50.770;0.250;2023-02-28T13:24:38;2.87;;;1.13;;
5961;SDS011;3007;50.770;0.250;2023-02-28T13:33:17;1.37;;;1.00;;
5961;SDS011;3007;50.770;0.250;2023-02-28T13:35:53;3.10;;;1.07;;
5961;SDS011;3007;50.770;0.250;2023-02-28T13:38:36;1.20;;;1.10;;
5961;SDS011;3007;50.770;0.250;2023-02-28T13:44:13;2.13;;;1.20;;
5961;SDS011;3007;50.770;0.250;2023-02-28T13:49:45;2.67;;;1.60;;
5961;SDS011;3007;50.770;0.250;2023-02-28T13:52:14;1.97;;;1.27;;
5961;SDS011;3007;50.770;0.250;2023-02-28T13:57:50;1.30;;;1.20;;
5961;SDS011;3007;50.770;0.250;2023-02-28T14:00:43;1.67;;;1.00;;
5961;SDS011;3007;50.770;0.250;2023-02-28T14:03:28;2.90;;;1.60;;
5961;SDS011;3007;50.770;0.250;2023-02-28T14:06:18;3.37;;;1.83;;
5961;SDS011;3007;50.770;0.250;2023-02-28T14:08:55;1.87;;;1.63;;
5961;SDS011;3007;50.770;0.250;2023-02-28T14:11:29;4.17;;;1.90;;
5961;SDS011;3007;50.770;0.250;2023-02-28T14:13:57;1.77;;;1.63;;
5961;SDS011;3007;50.770;0.250;2023-02-28T14:16:27;3.57;;;1.80;;
5961;SDS011;3007;50.770;0.250;2023-02-28T14:19:03;2.03;;;1.63;;
5961;SDS011;3007;50.770;0.250;2023-02-28T14:21:38;3.27;;;1.67;;
5961;SDS011;3007;50.770;0.250;2023-02-28T14:24:23;3.37;;;1.60;;
5961;SDS011;3007;50.770;0.250;2023-02-28T14:27:16;2.13;;;1.70;;
5961;SDS011;3007;50.770;0.250;2023-02-28T14:36:03;4.10;;;1.70;;
5961;SDS011;3007;50.770;0.250;2023-02-28T14:38:35;3.10;;;1.50;;
5961;SDS011;3007;50.770;0.250;2023-02-28T14:41:12;2.33;;;1.50;;
5961;SDS011;3007;50.770;0.250;2023-02-28T14:43:53;2.97;;;1.30;;
5961;SDS011;3007;50.770;0.250;2023-02-28T14:46:22;4.03;;;2.33;;
5961;SDS011;3007;50.770;0.250;2023-02-28T14:48:54;1.87;;;1.30;;
5961;SDS011;3007;50.770;0.250;2023-02-28T14:51:21;2.03;;;1.53;;
5961;SDS011;3007;50.770;0.250;2023-02-28T14:53:50;2.83;;;1.70;;
5961;SDS011;3007;50.770;0.250;2023-02-28T14:56:23;1.97;;;1.77;;
5961;SDS011;3007;50.770;0.250;2023-02-28T14:58:53;2.20;;;1.47;;
5961;SDS011;3007;50.770;0.250;2023-02-28T15:01:21;2.40;;;1.80;;
5961;SDS011;3007;50.770;0.250;2023-02-28T15:03:58;2.23;;;1.60;;
5961;SDS011;3007;50.770;0.250;2023-02-28T15:06:28;2.27;;;1.67;;
5961;SDS011;3007;50.770;0.250;2023-02-28T15:11:45;1.90;;;1.40;;
5961;SDS011;3007;50.770;0.250;2023-02-28T15:14:15;2.40;;;1.70;;
5961;SDS011;3007;50.770;0.250;2023-02-28T15:16:45;2.90;;;2.10;;
5961;SDS011;3007;50.770;0.250;2023-02-28T15:19:19;1.77;;;1.50;;
5961;SDS011;3007;50.770;0.250;2023-02-28T15:21:50;2.40;;;1.87;;
5961;SDS011;3007;50.770;0.250;2023-02-28T15:24:21;2.53;;;1.87;;
5961;SDS011;3007;50.770;0.250;2023-02-28T15:26:57;2.30;;;1.43;;
5961;SDS011;3007;50.770;0.250;2023-02-28T15:29:26;2.87;;;1.87;;
5961;SDS011;3007;50.770;0.250;2023-02-28T15:31:56;3.03;;;1.90;;
5961;SDS011;3007;50.770;0.250;2023-02-28T15:34:29;2.77;;;2.00;;
5961;SDS011;3007;50.770;0.250;2023-02-28T15:37:01;2.23;;;1.47;;
5961;SDS011;3007;50.770;0.250;2023-02-28T15:39:28;2.43;;;1.70;;
5961;SDS011;3007;50.770;0.250;2023-02-28T15:42:09;1.73;;;1.63;;
5961;SDS011;3007;50.770;0.250;2023-02-28T15:44:37;2.07;;;1.73;;
5961;SDS011;3007;50.770;0.250;2023-02-28T15:47:06;5.83;;;1.87;;
5961;SDS011;3007;50.770;0.250;2023-02-28T15:49:45;3.13;;;1.90;;
5961;SDS011;3007;50.770;0.250;2023-02-28T15:52:16;5.23;;;2.10;;
5961;SDS011;3007;50.770;0.250;2023-02-28T15:54:51;3.20;;;1.90;;
5961;SDS011;3007;50.770;0.250;2023-02-28T15:57:19;1.83;;;1.43;;
5961;SDS011;3007;50.770;0.250;2023-02-28T15:59:49;4.20;;;2.03;;
5961;SDS011;3007;50.770;0.250;2023-02-28T16:02:19;3.30;;;2.10;;
5961;SDS011;3007;50.770;0.250;2023-02-28T16:04:58;3.63;;;1.90;;
5961;SDS011;3007;50.770;0.250;2023-02-28T16:07:27;2.47;;;2.03;;
5961;SDS011;3007;50.770;0.250;2023-02-28T16:09:55;2.23;;;1.73;;
5961;SDS011;3007;50.770;0.250;2023-02-28T16:12:25;3.73;;;2.00;;
5961;SDS011;3007;50.770;0.250;2023-02-28T16:14:56;3.37;;;1.70;;